sensor_id;sensor_type;location;lat;lon;timestamp;temperature;humidity
23291;DHT22;11814;44.686;10.842;2022-09-11T00:00:28;22.30;98.90
23291;DHT22;11814;44.686;10.842;2022-09-11T00:02:54;22.30;99.10
23291;DHT22;11814;44.686;10.842;2022-09-11T00:05:19;22.20;99.40
23291;DHT22;11814;44.686;10.842;2022-09-11T00:07:45;22.20;99.80
23291;DHT22;11814;44.686;10.842;2022-09-11T00:10:11;22.20;99.90
23291;DHT22;11814;44.686;10.842;2022-09-11T00:12:37;22.10;99.90
23291;DHT22;11814;44.686;10.842;2022-09-11T00:15:03;22.10;99.90
23291;DHT22;11814;44.686;10.842;2022-09-11T00:17:28;22.10;99.90
23291;DHT22;11814;44.686;10.842;2022-09-11T00:19:54;22.10;99.90
23291;DHT22;11814;44.686;10.842;2022-09-11T00:22:20;22.10;99.90
23291;DHT22;11814;44.686;10.842;2022-09-11T00:24:46;22.20;99.90
23291;DHT22;11814;44.686;10.842;2022-09-11T00:27:12;22.20;99.90
23291;DHT22;11814;44.686;10.842;2022-09-11T00:29:37;22.20;99.90
23291;DHT22;11814;44.686;10.842;2022-09-11T00:32:03;22.20;99.90
23291;DHT22;11814;44.686;10.842;2022-09-11T00:34:29;22.20;99.90
23291;DHT22;11814;44.686;10.842;2022-09-11T00:36:55;22.10;99.90
23291;DHT22;11814;44.686;10.842;2022-09-11T00:39:22;22.10;99.90
23291;DHT22;11814;44.686;10.842;2022-09-11T00:41:48;22.00;99.90
23291;DHT22;11814;44.686;10.842;2022-09-11T00:46:57;22.00;99.90
23291;DHT22;11814;44.686;10.842;2022-09-11T00:49:28;22.00;99.90
23291;DHT22;11814;44.686;10.842;2022-09-11T00:54:30;21.90;99.90
23291;DHT22;11814;44.686;10.842;2022-09-11T00:56:59;21.90;99.90
23291;DHT22;11814;44.686;10.842;2022-09-11T00:59:28;22.00;99.90
23291;DHT22;11814;44.686;10.842;2022-09-11T01:01:54;22.00;99.90
23291;DHT22;11814;44.686;10.842;2022-09-11T01:04:21;22.00;99.90
23291;DHT22;11814;44.686;10.842;2022-09-11T01:06:52;22.00;99.90
23291;DHT22;11814;44.686;10.842;2022-09-11T01:09:19;22.00;99.90
23291;DHT22;11814;44.686;10.842;2022-09-11T01:14:50;21.90;99.90
23291;DHT22;11814;44.686;10.842;2022-09-11T01:17:28;21.90;99.90
23291;DHT22;11814;44.686;10.842;2022-09-11T01:25:25;21.90;99.90
23291;DHT22;11814;44.686;10.842;2022-09-11T01:27:59;22.00;99.90
23291;DHT22;11814;44.686;10.842;2022-09-11T01:30:36;21.90;99.90
23291;DHT22;11814;44.686;10.842;2022-09-11T01:33:09;21.90;99.90
23291;DHT22;11814;44.686;10.842;2022-09-11T01:36:05;21.90;99.90
23291;DHT22;11814;44.686;10.842;2022-09-11T01:38:39;21.90;99.90
23291;DHT22;11814;44.686;10.842;2022-09-11T01:44:17;21.90;99.90
23291;DHT22;11814;44.686;10.842;2022-09-11T01:46:46;21.90;99.90
23291;DHT22;11814;44.686;10.842;2022-09-11T01:49:37;21.80;99.90
23291;DHT22;11814;44.686;10.842;2022-09-11T01:52:07;21.80;99.90
23291;DHT22;11814;44.686;10.842;2022-09-11T01:54:38;21.70;99.90
23291;DHT22;11814;44.686;10.842;2022-09-11T01:57:16;21.70;99.90
23291;DHT22;11814;44.686;10.842;2022-09-11T01:59:48;21.60;99.90
23291;DHT22;11814;44.686;10.842;2022-09-11T02:02:20;21.60;99.90
23291;DHT22;11814;44.686;10.842;2022-09-11T02:04:55;21.50;99.90
23291;DHT22;11814;44.686;10.842;2022-09-11T02:07:39;21.40;99.90
23291;DHT22;11814;44.686;10.842;2022-09-11T02:10:10;21.40;99.90
23291;DHT22;11814;44.686;10.842;2022-09-11T02:12:56;21.40;99.90
23291;DHT22;11814;44.686;10.842;2022-09-11T02:15:34;21.40;99.90
23291;DHT22;11814;44.686;10.842;2022-09-11T02:18:53;21.40;99.90
23291;DHT22;11814;44.686;10.842;2022-09-11T02:20:57;21.40;99.90
23291;DHT22;11814;44.686;10.842;2022-09-11T02:23:23;21.40;99.90
23291;DHT22;11814;44.686;10.842;2022-09-11T02:25:49;21.40;99.90
23291;DHT22;11814;44.686;10.842;2022-09-11T02:28:15;21.30;99.90
23291;DHT22;11814;44.686;10.842;2022-09-11T02:30:42;21.20;99.90
23291;DHT22;11814;44.686;10.842;2022-09-11T02:33:33;21.20;99.90
23291;DHT22;11814;44.686;10.842;2022-09-11T02:39:23;21.20;99.90
23291;DHT22;11814;44.686;10.842;2022-09-11T02:44:44;21.10;99.90
23291;DHT22;11814;44.686;10.842;2022-09-11T02:53:09;21.10;99.90
23291;DHT22;11814;44.686;10.842;2022-09-11T02:55:59;21.10;99.90
23291;DHT22;11814;44.686;10.842;2022-09-11T02:58:31;21.20;99.90
23291;DHT22;11814;44.686;10.842;2022-09-11T03:00:59;21.10;99.90
23291;DHT22;11814;44.686;10.842;2022-09-11T03:03:25;21.20;99.90
23291;DHT22;11814;44.686;10.842;2022-09-11T03:05:51;21.10;99.90
23291;DHT22;11814;44.686;10.842;2022-09-11T03:08:17;21.20;99.90
23291;DHT22;11814;44.686;10.842;2022-09-11T03:10:43;21.10;99.90
23291;DHT22;11814;44.686;10.842;2022-09-11T03:13:14;21.10;99.90
23291;DHT22;11814;44.686;10.842;2022-09-11T03:15:41;21.10;99.90
23291;DHT22;11814;44.686;10.842;2022-09-11T03:18:09;21.10;99.90
23291;DHT22;11814;44.686;10.842;2022-09-11T03:20:36;21.00;99.90
23291;DHT22;11814;44.686;10.842;2022-09-11T03:23:03;20.90;99.90
23291;DHT22;11814;44.686;10.842;2022-09-11T03:25:35;20.90;99.90
23291;DHT22;11814;44.686;10.842;2022-09-11T03:28:00;20.90;99.90
23291;DHT22;11814;44.686;10.842;2022-09-11T03:30:29;20.90;99.90
23291;DHT22;11814;44.686;10.842;2022-09-11T03:32:54;20.80;99.90
23291;DHT22;11814;44.686;10.842;2022-09-11T03:35:20;20.80;99.90
23291;DHT22;11814;44.686;10.842;2022-09-11T03:37:46;20.80;99.90
23291;DHT22;11814;44.686;10.842;2022-09-11T03:40:11;20.80;99.90
23291;DHT22;11814;44.686;10.842;2022-09-11T03:42:37;20.80;99.90
23291;DHT22;11814;44.686;10.842;2022-09-11T03:45:03;20.80;99.90
23291;DHT22;11814;44.686;10.842;2022-09-11T03:47:29;20.70;99.90
23291;DHT22;11814;44.686;10.842;2022-09-11T03:49:54;20.70;99.90
23291;DHT22;11814;44.686;10.842;2022-09-11T03:52:23;20.70;99.90
23291;DHT22;11814;44.686;10.842;2022-09-11T03:54:49;20.70;99.90
23291;DHT22;11814;44.686;10.842;2022-09-11T03:57:15;20.80;99.90
23291;DHT22;11814;44.686;10.842;2022-09-11T03:59:40;20.80;99.90
23291;DHT22;11814;44.686;10.842;2022-09-11T04:02:06;20.90;99.90
23291;DHT22;11814;44.686;10.842;2022-09-11T04:04:32;20.90;99.90
23291;DHT22;11814;44.686;10.842;2022-09-11T04:06:57;20.90;99.90
23291;DHT22;11814;44.686;10.842;2022-09-11T04:09:23;20.90;99.90
23291;DHT22;11814;44.686;10.842;2022-09-11T04:11:49;20.90;99.90
23291;DHT22;11814;44.686;10.842;2022-09-11T04:14:15;20.90;99.90
23291;DHT22;11814;44.686;10.842;2022-09-11T04:16:41;20.90;99.90
23291;DHT22;11814;44.686;10.842;2022-09-11T04:19:08;21.00;99.90
23291;DHT22;11814;44.686;10.842;2022-09-11T04:21:34;21.00;99.90
23291;DHT22;11814;44.686;10.842;2022-09-11T04:24:00;21.00;99.90
23291;DHT22;11814;44.686;10.842;2022-09-11T04:26:28;21.00;99.90
23291;DHT22;11814;44.686;10.842;2022-09-11T04:28:55;21.00;99.90
23291;DHT22;11814;44.686;10.842;2022-09-11T04:31:21;21.10;99.90
23291;DHT22;11814;44.686;10.842;2022-09-11T04:33:48;21.10;99.90
23291;DHT22;11814;44.686;10.842;2022-09-11T04:36:15;21.00;99.90
23291;DHT22;11814;44.686;10.842;2022-09-11T04:38:42;21.00;99.90
23291;DHT22;11814;44.686;10.842;2022-09-11T04:41:09;21.00;99.90
23291;DHT22;11814;44.686;10.842;2022-09-11T04:43:38;21.00;99.90
23291;DHT22;11814;44.686;10.842;2022-09-11T04:46:11;21.00;99.90
23291;DHT22;11814;44.686;10.842;2022-09-11T04:48:47;21.00;99.90
23291;DHT22;11814;44.686;10.842;2022-09-11T04:51:25;21.00;99.90
23291;DHT22;11814;44.686;10.842;2022-09-11T04:53:52;21.00;99.90
23291;DHT22;11814;44.686;10.842;2022-09-11T04:56:23;21.00;99.90
23291;DHT22;11814;44.686;10.842;2022-09-11T04:58:53;21.00;99.90
23291;DHT22;11814;44.686;10.842;2022-09-11T05:01:20;21.00;99.90
23291;DHT22;11814;44.686;10.842;2022-09-11T05:03:45;21.00;99.90
23291;DHT22;11814;44.686;10.842;2022-09-11T05:06:12;20.90;99.90
23291;DHT22;11814;44.686;10.842;2022-09-11T05:08:42;21.00;99.90
23291;DHT22;11814;44.686;10.842;2022-09-11T05:11:16;20.90;99.90
23291;DHT22;11814;44.686;10.842;2022-09-11T05:13:43;20.90;99.90
23291;DHT22;11814;44.686;10.842;2022-09-11T05:16:11;20.90;99.90
23291;DHT22;11814;44.686;10.842;2022-09-11T05:18:39;20.90;99.90
23291;DHT22;11814;44.686;10.842;2022-09-11T05:21:08;20.90;99.90
23291;DHT22;11814;44.686;10.842;2022-09-11T05:23:34;20.80;99.90
23291;DHT22;11814;44.686;10.842;2022-09-11T05:26:02;20.80;99.90
23291;DHT22;11814;44.686;10.842;2022-09-11T05:28:29;20.70;99.90
23291;DHT22;11814;44.686;10.842;2022-09-11T05:30:56;20.80;99.90
23291;DHT22;11814;44.686;10.842;2022-09-11T05:33:23;20.80;99.90
23291;DHT22;11814;44.686;10.842;2022-09-11T05:35:53;20.80;99.90
23291;DHT22;11814;44.686;10.842;2022-09-11T05:38:19;20.90;99.90
23291;DHT22;11814;44.686;10.842;2022-09-11T05:40:47;20.90;99.90
23291;DHT22;11814;44.686;10.842;2022-09-11T05:43:14;21.00;99.90
23291;DHT22;11814;44.686;10.842;2022-09-11T05:45:43;21.10;99.90
23291;DHT22;11814;44.686;10.842;2022-09-11T05:48:10;21.20;99.90
23291;DHT22;11814;44.686;10.842;2022-09-11T05:50:37;21.20;99.90
23291;DHT22;11814;44.686;10.842;2022-09-11T05:53:04;21.30;99.90
23291;DHT22;11814;44.686;10.842;2022-09-11T05:55:32;21.30;99.90
23291;DHT22;11814;44.686;10.842;2022-09-11T05:58:00;21.40;99.90
23291;DHT22;11814;44.686;10.842;2022-09-11T06:00:26;21.50;99.90
23291;DHT22;11814;44.686;10.842;2022-09-11T06:02:52;21.50;99.90
23291;DHT22;11814;44.686;10.842;2022-09-11T06:05:19;21.50;99.90
23291;DHT22;11814;44.686;10.842;2022-09-11T06:07:45;21.50;99.90
23291;DHT22;11814;44.686;10.842;2022-09-11T06:10:11;21.50;99.90
23291;DHT22;11814;44.686;10.842;2022-09-11T06:12:36;21.50;99.90
23291;DHT22;11814;44.686;10.842;2022-09-11T06:15:02;21.50;99.90
23291;DHT22;11814;44.686;10.842;2022-09-11T06:17:28;21.50;99.90
23291;DHT22;11814;44.686;10.842;2022-09-11T06:19:54;21.50;99.90
23291;DHT22;11814;44.686;10.842;2022-09-11T06:22:19;21.50;99.90
23291;DHT22;11814;44.686;10.842;2022-09-11T06:24:46;21.50;99.90
23291;DHT22;11814;44.686;10.842;2022-09-11T06:27:13;21.60;99.90
23291;DHT22;11814;44.686;10.842;2022-09-11T06:29:40;21.80;99.90
23291;DHT22;11814;44.686;10.842;2022-09-11T06:32:05;22.00;99.90
23291;DHT22;11814;44.686;10.842;2022-09-11T06:34:31;22.30;99.90
23291;DHT22;11814;44.686;10.842;2022-09-11T06:36:57;22.60;99.90
23291;DHT22;11814;44.686;10.842;2022-09-11T06:39:23;22.90;99.90
23291;DHT22;11814;44.686;10.842;2022-09-11T06:41:48;23.10;99.90
23291;DHT22;11814;44.686;10.842;2022-09-11T06:44:15;23.30;99.90
23291;DHT22;11814;44.686;10.842;2022-09-11T06:46:40;23.30;99.90
23291;DHT22;11814;44.686;10.842;2022-09-11T06:49:06;23.30;99.90
23291;DHT22;11814;44.686;10.842;2022-09-11T06:51:32;23.50;99.90
23291;DHT22;11814;44.686;10.842;2022-09-11T06:53:59;23.70;99.90
23291;DHT22;11814;44.686;10.842;2022-09-11T06:56:28;23.80;99.90
23291;DHT22;11814;44.686;10.842;2022-09-11T06:58:57;23.90;99.80
23291;DHT22;11814;44.686;10.842;2022-09-11T07:01:23;23.80;99.30
23291;DHT22;11814;44.686;10.842;2022-09-11T07:03:50;23.80;99.30
23291;DHT22;11814;44.686;10.842;2022-09-11T07:06:20;23.80;99.10
23291;DHT22;11814;44.686;10.842;2022-09-11T07:08:50;23.80;99.00
23291;DHT22;11814;44.686;10.842;2022-09-11T07:11:17;23.90;98.80
23291;DHT22;11814;44.686;10.842;2022-09-11T07:13:43;24.00;98.70
23291;DHT22;11814;44.686;10.842;2022-09-11T07:16:10;24.00;98.60
23291;DHT22;11814;44.686;10.842;2022-09-11T07:18:43;24.00;98.40
23291;DHT22;11814;44.686;10.842;2022-09-11T07:21:20;24.00;98.50
23291;DHT22;11814;44.686;10.842;2022-09-11T07:23:48;24.20;98.60
23291;DHT22;11814;44.686;10.842;2022-09-11T07:26:14;24.30;98.10
23291;DHT22;11814;44.686;10.842;2022-09-11T07:28:41;24.30;97.90
23291;DHT22;11814;44.686;10.842;2022-09-11T07:33:38;25.20;97.10
23291;DHT22;11814;44.686;10.842;2022-09-11T07:36:06;25.90;95.40
23291;DHT22;11814;44.686;10.842;2022-09-11T07:38:32;26.30;93.60
23291;DHT22;11814;44.686;10.842;2022-09-11T07:40:58;26.60;92.20
23291;DHT22;11814;44.686;10.842;2022-09-11T07:43:24;26.60;91.00
23291;DHT22;11814;44.686;10.842;2022-09-11T07:45:52;26.60;90.40
23291;DHT22;11814;44.686;10.842;2022-09-11T07:48:18;26.50;90.00
23291;DHT22;11814;44.686;10.842;2022-09-11T07:51:04;26.50;90.10
23291;DHT22;11814;44.686;10.842;2022-09-11T07:53:41;26.70;89.40
23291;DHT22;11814;44.686;10.842;2022-09-11T07:56:12;27.10;87.40
23291;DHT22;11814;44.686;10.842;2022-09-11T07:58:39;27.20;86.50
23291;DHT22;11814;44.686;10.842;2022-09-11T08:01:07;27.30;85.60
23291;DHT22;11814;44.686;10.842;2022-09-11T08:03:34;27.30;84.60
23291;DHT22;11814;44.686;10.842;2022-09-11T08:06:05;27.20;83.70
23291;DHT22;11814;44.686;10.842;2022-09-11T08:08:31;27.00;83.50
23291;DHT22;11814;44.686;10.842;2022-09-11T08:11:09;26.90;84.10
23291;DHT22;11814;44.686;10.842;2022-09-11T08:13:35;26.80;84.30
23291;DHT22;11814;44.686;10.842;2022-09-11T08:16:01;26.80;84.30
23291;DHT22;11814;44.686;10.842;2022-09-11T08:18:27;26.80;84.80
23291;DHT22;11814;44.686;10.842;2022-09-11T08:21:08;27.10;84.50
23291;DHT22;11814;44.686;10.842;2022-09-11T08:23:34;27.30;83.00
23291;DHT22;11814;44.686;10.842;2022-09-11T08:26:09;27.50;82.30
23291;DHT22;11814;44.686;10.842;2022-09-11T08:28:36;27.50;81.70
23291;DHT22;11814;44.686;10.842;2022-09-11T08:31:03;27.40;81.50
23291;DHT22;11814;44.686;10.842;2022-09-11T08:33:30;27.40;81.70
23291;DHT22;11814;44.686;10.842;2022-09-11T08:36:00;27.30;81.30
23291;DHT22;11814;44.686;10.842;2022-09-11T08:38:27;27.20;81.60
23291;DHT22;11814;44.686;10.842;2022-09-11T08:40:53;27.20;81.60
23291;DHT22;11814;44.686;10.842;2022-09-11T08:43:29;27.10;81.40
23291;DHT22;11814;44.686;10.842;2022-09-11T08:46:03;27.00;81.60
23291;DHT22;11814;44.686;10.842;2022-09-11T08:51:25;26.70;82.60
23291;DHT22;11814;44.686;10.842;2022-09-11T08:53:52;26.60;83.00
23291;DHT22;11814;44.686;10.842;2022-09-11T08:56:21;26.50;83.10
23291;DHT22;11814;44.686;10.842;2022-09-11T08:59:22;26.40;83.90
23291;DHT22;11814;44.686;10.842;2022-09-11T09:07:51;26.30;85.10
23291;DHT22;11814;44.686;10.842;2022-09-11T09:19:12;26.10;86.40
23291;DHT22;11814;44.686;10.842;2022-09-11T09:24:46;26.40;86.10
23291;DHT22;11814;44.686;10.842;2022-09-11T09:27:24;26.40;85.60
23291;DHT22;11814;44.686;10.842;2022-09-11T09:29:52;26.40;85.10
23291;DHT22;11814;44.686;10.842;2022-09-11T09:32:33;26.50;85.10
23291;DHT22;11814;44.686;10.842;2022-09-11T09:35:04;26.60;84.80
23291;DHT22;11814;44.686;10.842;2022-09-11T09:37:36;26.70;84.70
23291;DHT22;11814;44.686;10.842;2022-09-11T09:40:06;26.60;83.90
23291;DHT22;11814;44.686;10.842;2022-09-11T09:43:21;26.50;84.10
23291;DHT22;11814;44.686;10.842;2022-09-11T09:48:16;26.50;84.60
23291;DHT22;11814;44.686;10.842;2022-09-11T09:50:42;26.50;84.30
23291;DHT22;11814;44.686;10.842;2022-09-11T09:55:47;26.80;84.00
23291;DHT22;11814;44.686;10.842;2022-09-11T09:58:13;26.90;83.50
23291;DHT22;11814;44.686;10.842;2022-09-11T10:00:39;27.10;83.10
23291;DHT22;11814;44.686;10.842;2022-09-11T10:03:24;27.20;82.50
23291;DHT22;11814;44.686;10.842;2022-09-11T10:05:52;27.30;82.30
23291;DHT22;11814;44.686;10.842;2022-09-11T10:08:35;27.40;81.90
23291;DHT22;11814;44.686;10.842;2022-09-11T10:11:05;27.50;81.50
23291;DHT22;11814;44.686;10.842;2022-09-11T10:13:33;27.50;81.20
23291;DHT22;11814;44.686;10.842;2022-09-11T10:16:03;27.50;80.80
23291;DHT22;11814;44.686;10.842;2022-09-11T10:23:57;27.60;80.50
23291;DHT22;11814;44.686;10.842;2022-09-11T10:29:26;27.80;80.20
23291;DHT22;11814;44.686;10.842;2022-09-11T10:31:58;27.90;80.40
23291;DHT22;11814;44.686;10.842;2022-09-11T10:34:33;27.90;79.40
23291;DHT22;11814;44.686;10.842;2022-09-11T10:37:23;27.90;79.30
23291;DHT22;11814;44.686;10.842;2022-09-11T10:39:50;27.90;79.00
23291;DHT22;11814;44.686;10.842;2022-09-11T10:42:22;27.90;78.90
23291;DHT22;11814;44.686;10.842;2022-09-11T10:44:51;28.00;78.80
23291;DHT22;11814;44.686;10.842;2022-09-11T10:47:24;28.00;78.80
23291;DHT22;11814;44.686;10.842;2022-09-11T10:52:59;28.10;77.80
23291;DHT22;11814;44.686;10.842;2022-09-11T10:55:33;28.00;77.80
23291;DHT22;11814;44.686;10.842;2022-09-11T10:58:10;28.00;77.80
23291;DHT22;11814;44.686;10.842;2022-09-11T11:00:38;28.10;77.80
23291;DHT22;11814;44.686;10.842;2022-09-11T11:03:16;28.20;77.60
23291;DHT22;11814;44.686;10.842;2022-09-11T11:31:37;28.60;74.60
23291;DHT22;11814;44.686;10.842;2022-09-11T11:37:00;28.60;74.00
23291;DHT22;11814;44.686;10.842;2022-09-11T11:39:42;28.60;73.80
23291;DHT22;11814;44.686;10.842;2022-09-11T11:42:29;28.50;74.40
23291;DHT22;11814;44.686;10.842;2022-09-11T11:45:22;28.50;74.70
23291;DHT22;11814;44.686;10.842;2022-09-11T11:47:50;28.50;74.80
23291;DHT22;11814;44.686;10.842;2022-09-11T11:50:36;28.50;74.80
23291;DHT22;11814;44.686;10.842;2022-09-11T11:53:22;28.50;74.30
23291;DHT22;11814;44.686;10.842;2022-09-11T11:59:02;28.40;73.90
23291;DHT22;11814;44.686;10.842;2022-09-11T12:06:50;28.40;73.70
23291;DHT22;11814;44.686;10.842;2022-09-11T12:09:16;28.50;73.70
23291;DHT22;11814;44.686;10.842;2022-09-11T12:11:45;28.60;73.10
23291;DHT22;11814;44.686;10.842;2022-09-11T12:14:25;28.70;72.60
23291;DHT22;11814;44.686;10.842;2022-09-11T12:16:52;28.70;72.20
23291;DHT22;11814;44.686;10.842;2022-09-11T12:19:20;28.70;72.20
23291;DHT22;11814;44.686;10.842;2022-09-11T12:26:44;28.80;72.00
23291;DHT22;11814;44.686;10.842;2022-09-11T12:37:03;28.90;70.70
23291;DHT22;11814;44.686;10.842;2022-09-11T12:39:34;28.90;70.10
23291;DHT22;11814;44.686;10.842;2022-09-11T12:47:24;28.80;70.20
23291;DHT22;11814;44.686;10.842;2022-09-11T12:55:27;28.80;69.50
23291;DHT22;11814;44.686;10.842;2022-09-11T12:57:55;28.80;69.00
23291;DHT22;11814;44.686;10.842;2022-09-11T13:00:40;28.90;69.00
23291;DHT22;11814;44.686;10.842;2022-09-11T13:03:19;28.80;68.40
23291;DHT22;11814;44.686;10.842;2022-09-11T13:06:12;28.80;68.40
23291;DHT22;11814;44.686;10.842;2022-09-11T13:08:49;28.80;68.50
23291;DHT22;11814;44.686;10.842;2022-09-11T13:11:38;28.80;68.40
23291;DHT22;11814;44.686;10.842;2022-09-11T13:16:50;28.90;68.10
23291;DHT22;11814;44.686;10.842;2022-09-11T13:19:17;28.90;67.80
23291;DHT22;11814;44.686;10.842;2022-09-11T13:21:46;29.00;67.40
23291;DHT22;11814;44.686;10.842;2022-09-11T13:27:35;29.10;67.30
23291;DHT22;11814;44.686;10.842;2022-09-11T13:29:41;29.10;66.80
23291;DHT22;11814;44.686;10.842;2022-09-11T13:32:12;29.00;66.70
23291;DHT22;11814;44.686;10.842;2022-09-11T13:34:42;29.10;66.40
23291;DHT22;11814;44.686;10.842;2022-09-11T13:37:27;29.10;66.10
23291;DHT22;11814;44.686;10.842;2022-09-11T13:39:56;29.00;66.10
23291;DHT22;11814;44.686;10.842;2022-09-11T13:42:22;29.00;66.80
23291;DHT22;11814;44.686;10.842;2022-09-11T13:44:51;29.10;67.20
23291;DHT22;11814;44.686;10.842;2022-09-11T13:47:23;29.20;67.20
23291;DHT22;11814;44.686;10.842;2022-09-11T13:50:04;29.20;67.00
23291;DHT22;11814;44.686;10.842;2022-09-11T13:52:32;29.20;67.20
23291;DHT22;11814;44.686;10.842;2022-09-11T13:55:08;29.20;67.10
23291;DHT22;11814;44.686;10.842;2022-09-11T13:57:53;29.20;66.40
23291;DHT22;11814;44.686;10.842;2022-09-11T14:00:54;29.00;66.40
23291;DHT22;11814;44.686;10.842;2022-09-11T14:03:28;29.10;67.00
23291;DHT22;11814;44.686;10.842;2022-09-11T14:06:01;29.10;66.70
23291;DHT22;11814;44.686;10.842;2022-09-11T14:08:34;29.10;66.20
23291;DHT22;11814;44.686;10.842;2022-09-11T14:13:33;29.00;65.50
23291;DHT22;11814;44.686;10.842;2022-09-11T14:18:52;28.90;65.60
23291;DHT22;11814;44.686;10.842;2022-09-11T14:21:29;28.90;65.60
23291;DHT22;11814;44.686;10.842;2022-09-11T14:23:56;29.00;65.40
23291;DHT22;11814;44.686;10.842;2022-09-11T14:26:24;29.00;65.40
23291;DHT22;11814;44.686;10.842;2022-09-11T14:31:37;29.10;65.10
23291;DHT22;11814;44.686;10.842;2022-09-11T14:34:26;29.10;65.00
23291;DHT22;11814;44.686;10.842;2022-09-11T14:37:09;29.10;64.90
23291;DHT22;11814;44.686;10.842;2022-09-11T14:39:38;29.20;64.50
23291;DHT22;11814;44.686;10.842;2022-09-11T14:42:28;29.20;64.20
23291;DHT22;11814;44.686;10.842;2022-09-11T14:44:52;29.10;63.90
23291;DHT22;11814;44.686;10.842;2022-09-11T14:47:21;29.10;64.10
23291;DHT22;11814;44.686;10.842;2022-09-11T14:49:51;29.20;64.00
23291;DHT22;11814;44.686;10.842;2022-09-11T14:52:20;29.20;63.70
23291;DHT22;11814;44.686;10.842;2022-09-11T14:54:46;29.30;63.70
23291;DHT22;11814;44.686;10.842;2022-09-11T14:57:14;29.30;63.70
23291;DHT22;11814;44.686;10.842;2022-09-11T14:59:41;29.30;63.50
23291;DHT22;11814;44.686;10.842;2022-09-11T15:02:13;29.30;63.40
23291;DHT22;11814;44.686;10.842;2022-09-11T15:04:39;29.30;63.40
23291;DHT22;11814;44.686;10.842;2022-09-11T15:07:09;29.20;63.40
23291;DHT22;11814;44.686;10.842;2022-09-11T15:09:36;29.30;63.60
23291;DHT22;11814;44.686;10.842;2022-09-11T15:12:05;29.30;63.50
23291;DHT22;11814;44.686;10.842;2022-09-11T15:14:31;29.30;63.40
23291;DHT22;11814;44.686;10.842;2022-09-11T15:17:00;29.30;63.10
23291;DHT22;11814;44.686;10.842;2022-09-11T15:19:28;29.30;62.80
23291;DHT22;11814;44.686;10.842;2022-09-11T15:21:55;29.20;62.40
23291;DHT22;11814;44.686;10.842;2022-09-11T15:24:22;29.10;62.50
23291;DHT22;11814;44.686;10.842;2022-09-11T15:26:48;29.20;62.70
23291;DHT22;11814;44.686;10.842;2022-09-11T15:29:14;29.20;62.70
23291;DHT22;11814;44.686;10.842;2022-09-11T15:31:40;29.20;62.40
23291;DHT22;11814;44.686;10.842;2022-09-11T15:34:05;29.20;62.10
23291;DHT22;11814;44.686;10.842;2022-09-11T15:36:35;29.20;61.70
23291;DHT22;11814;44.686;10.842;2022-09-11T15:39:05;29.20;61.80
23291;DHT22;11814;44.686;10.842;2022-09-11T15:41:31;29.20;61.70
23291;DHT22;11814;44.686;10.842;2022-09-11T15:43:56;29.20;61.40
23291;DHT22;11814;44.686;10.842;2022-09-11T15:46:22;29.10;61.10
23291;DHT22;11814;44.686;10.842;2022-09-11T15:48:49;29.10;60.90
23291;DHT22;11814;44.686;10.842;2022-09-11T15:51:20;29.10;60.50
23291;DHT22;11814;44.686;10.842;2022-09-11T15:53:46;29.00;60.00
23291;DHT22;11814;44.686;10.842;2022-09-11T15:56:17;28.90;60.10
23291;DHT22;11814;44.686;10.842;2022-09-11T15:58:44;28.90;60.10
23291;DHT22;11814;44.686;10.842;2022-09-11T16:01:25;28.90;60.40
23291;DHT22;11814;44.686;10.842;2022-09-11T16:03:52;28.80;60.60
23291;DHT22;11814;44.686;10.842;2022-09-11T16:06:19;28.80;60.70
23291;DHT22;11814;44.686;10.842;2022-09-11T16:08:46;28.80;61.00
23291;DHT22;11814;44.686;10.842;2022-09-11T16:11:13;28.70;60.90
23291;DHT22;11814;44.686;10.842;2022-09-11T16:13:40;28.70;60.80
23291;DHT22;11814;44.686;10.842;2022-09-11T16:16:06;28.60;60.70
23291;DHT22;11814;44.686;10.842;2022-09-11T16:18:36;28.60;60.60
23291;DHT22;11814;44.686;10.842;2022-09-11T16:21:04;28.60;60.40
23291;DHT22;11814;44.686;10.842;2022-09-11T16:23:32;28.60;60.60
23291;DHT22;11814;44.686;10.842;2022-09-11T16:26:02;28.60;60.60
23291;DHT22;11814;44.686;10.842;2022-09-11T16:28:29;28.50;60.40
23291;DHT22;11814;44.686;10.842;2022-09-11T16:30:56;28.50;60.20
23291;DHT22;11814;44.686;10.842;2022-09-11T16:33:22;28.50;60.30
23291;DHT22;11814;44.686;10.842;2022-09-11T16:36:03;28.40;60.20
23291;DHT22;11814;44.686;10.842;2022-09-11T16:38:35;28.40;60.60
23291;DHT22;11814;44.686;10.842;2022-09-11T16:41:13;28.30;60.70
23291;DHT22;11814;44.686;10.842;2022-09-11T16:43:46;28.30;60.70
23291;DHT22;11814;44.686;10.842;2022-09-11T16:46:20;28.20;60.40
23291;DHT22;11814;44.686;10.842;2022-09-11T16:48:47;28.20;60.20
23291;DHT22;11814;44.686;10.842;2022-09-11T16:51:14;28.20;60.10
23291;DHT22;11814;44.686;10.842;2022-09-11T16:53:40;28.10;60.60
23291;DHT22;11814;44.686;10.842;2022-09-11T16:56:08;28.00;61.50
23291;DHT22;11814;44.686;10.842;2022-09-11T16:58:35;28.00;62.10
23291;DHT22;11814;44.686;10.842;2022-09-11T17:01:09;27.90;62.50
23291;DHT22;11814;44.686;10.842;2022-09-11T17:03:36;27.90;63.30
23291;DHT22;11814;44.686;10.842;2022-09-11T17:06:02;27.80;63.80
23291;DHT22;11814;44.686;10.842;2022-09-11T17:08:29;27.70;64.40
23291;DHT22;11814;44.686;10.842;2022-09-11T17:10:58;27.60;65.00
23291;DHT22;11814;44.686;10.842;2022-09-11T17:13:24;27.50;65.40
23291;DHT22;11814;44.686;10.842;2022-09-11T17:15:52;27.50;65.80
23291;DHT22;11814;44.686;10.842;2022-09-11T17:18:18;27.40;65.90
23291;DHT22;11814;44.686;10.842;2022-09-11T17:20:44;27.30;66.00
23291;DHT22;11814;44.686;10.842;2022-09-11T17:23:10;27.20;66.30
23291;DHT22;11814;44.686;10.842;2022-09-11T17:25:38;27.20;66.60
23291;DHT22;11814;44.686;10.842;2022-09-11T17:28:05;27.10;67.30
23291;DHT22;11814;44.686;10.842;2022-09-11T17:30:31;27.00;68.00
23291;DHT22;11814;44.686;10.842;2022-09-11T17:32:56;26.90;68.70
23291;DHT22;11814;44.686;10.842;2022-09-11T17:35:22;26.90;69.20
23291;DHT22;11814;44.686;10.842;2022-09-11T17:37:49;26.80;69.50
23291;DHT22;11814;44.686;10.842;2022-09-11T17:40:15;26.70;69.80
23291;DHT22;11814;44.686;10.842;2022-09-11T17:42:41;26.60;70.10
23291;DHT22;11814;44.686;10.842;2022-09-11T17:45:08;26.60;70.40
23291;DHT22;11814;44.686;10.842;2022-09-11T17:47:34;26.50;70.70
23291;DHT22;11814;44.686;10.842;2022-09-11T17:50:00;26.40;70.90
23291;DHT22;11814;44.686;10.842;2022-09-11T17:52:27;26.40;71.30
23291;DHT22;11814;44.686;10.842;2022-09-11T17:54:53;26.30;71.70